Chegutu, Zimbabwe
Current Conditions -  °F | °C
As of 1:00 PM on Saturday 25 Oct 2014 (Local Time) from FVHA Reporting Station
Clear Clear  
Wind Chill: 86°   Ceiling: Unl
Heat Index: 86°   Visibility: 6mi
Dew Point: 48°   Wind: 6mph
Humidity: 27%   Direction: NA
Pressure: 30.12"   Gusts: NA
Location:  18.13°S, 30.14°E
Report Text: FVHA 251100Z VRB05KT CAVOK 30/09 Q1020 NOSIG
Loading
Personal Weather Stations






























Interactive Weather Map
Tropical Storm Tracking
New forecast layout! Learn more

10-Day Weather Forecast

Advertisements
Track Severe Weather on mobile